createdAt,value
2022-11-29T00:00:53.435Z,100956.41
2022-11-29T00:02:07.046Z,100956.28
2022-11-29T00:03:08.661Z,100960.63
2022-11-29T00:04:11.858Z,100961.50
2022-11-29T00:05:13.463Z,100958.84
2022-11-29T00:06:18.367Z,100963.28
2022-11-29T00:07:19.984Z,100958.00
2022-11-29T00:08:24.432Z,100965.09
2022-11-29T00:09:27.643Z,100960.72
2022-11-29T00:10:30.187Z,100960.72
2022-11-29T00:11:52.265Z,100966.88
2022-11-29T00:12:54.813Z,100962.44
2022-11-29T00:13:56.317Z,100963.38
2022-11-29T00:14:58.811Z,100964.13
2022-11-29T00:16:04.451Z,100963.16
2022-11-29T00:17:06.951Z,100966.66
2022-11-29T00:18:08.765Z,100962.22
2022-11-29T00:19:13.168Z,100965.81
2022-11-29T00:20:15.642Z,100961.25
2022-11-29T00:21:17.164Z,100958.63
2022-11-29T00:22:19.739Z,100962.94
2022-11-29T00:23:21.503Z,100961.13
2022-11-29T00:24:24.254Z,100961.97
2022-11-29T00:25:27.409Z,100967.28
2022-11-29T00:26:29.912Z,100961.97
2022-11-29T00:27:31.663Z,100961.13
2022-11-29T00:28:34.936Z,100964.63
2022-11-29T00:29:36.433Z,100964.75
2022-11-29T00:30:38.991Z,100960.28
2022-11-29T00:31:41.343Z,100959.47
2022-11-29T00:32:43.910Z,100962.94
2022-11-29T00:33:45.590Z,100961.25
2022-11-29T00:34:48.367Z,100964.84
2022-11-29T00:35:50.299Z,100963.06
2022-11-29T00:36:53.219Z,100963.16
2022-11-29T00:37:54.942Z,100959.69
2022-11-29T00:38:57.815Z,100961.50
2022-11-29T00:40:00.278Z,100964.13
2022-11-29T00:41:03.390Z,100963.16
2022-11-29T00:42:06.006Z,100964.13
2022-11-29T00:43:07.550Z,100978.22
2022-11-29T00:44:13.933Z,100967.72
2022-11-29T00:45:19.373Z,100966.78
2022-11-29T00:46:20.942Z,100966.78
2022-11-29T00:47:23.591Z,100972.31
2022-11-29T00:48:25.455Z,100968.69
2022-11-29T00:49:27.905Z,100972.31
2022-11-29T00:50:29.407Z,100970.47
2022-11-29T00:51:31.943Z,100968.81
2022-11-29T00:52:34.466Z,100974.97
2022-11-29T00:53:36.554Z,100974.97
2022-11-29T00:54:39.035Z,100970.47
2022-11-29T00:55:40.660Z,100967.97
2022-11-29T00:56:44.503Z,100970.59
2022-11-29T00:57:46.034Z,100968.81
2022-11-29T00:58:49.323Z,100968.81
2022-11-29T00:59:51.782Z,100970.59
2022-11-29T01:00:54.420Z,100968.91
2022-11-29T01:01:57.204Z,100967.25
2022-11-29T01:02:58.767Z,100970.69
2022-11-29T01:04:01.385Z,100969.88
2022-11-29T01:05:02.978Z,100968.19
2022-11-29T01:06:07.533Z,100963.75
2022-11-29T01:07:10.050Z,100975.19
2022-11-29T01:08:12.277Z,100968.06
2022-11-29T01:09:14.772Z,100973.25
2022-11-29T01:10:17.143Z,100973.25
2022-11-29T01:11:22.347Z,100972.31
2022-11-29T01:12:25.214Z,100973.25
2022-11-29T01:13:27.688Z,100974.19
2022-11-29T01:14:30.260Z,100972.41
2022-11-29T01:15:31.899Z,100973.25
2022-11-29T01:16:34.820Z,100974.09
2022-11-29T01:17:38.760Z,100971.47
2022-11-29T01:18:41.707Z,100970.47
2022-11-29T01:19:49.341Z,100976.63
2022-11-29T01:20:58.019Z,100966.03
2022-11-29T01:22:00.518Z,100968.69
2022-11-29T01:23:02.047Z,100977.69
2022-11-29T01:24:05.074Z,100975.91
2022-11-29T01:25:07.947Z,100982.06
2022-11-29T01:26:12.799Z,100983.84
2022-11-29T01:27:14.410Z,100983.00
2022-11-29T01:28:18.252Z,100981.31
2022-11-29T01:29:19.758Z,100985.66
2022-11-29T01:30:22.294Z,100983.84
2022-11-29T01:31:26.069Z,100982.91
2022-11-29T01:32:28.600Z,100981.19
2022-11-29T01:33:30.123Z,100979.50
2022-11-29T01:34:32.626Z,100982.28
2022-11-29T01:35:34.114Z,100981.44
2022-11-29T01:36:36.577Z,100978.88
2022-11-29T01:37:38.079Z,100981.53
2022-11-29T01:38:42.231Z,100980.66
2022-11-29T01:39:43.759Z,100986.81
2022-11-29T01:40:46.802Z,100978.03
2022-11-29T01:41:49.280Z,100974.44
2022-11-29T01:42:50.764Z,100982.38
2022-11-29T01:44:01.112Z,100982.38
2022-11-29T01:45:19.463Z,100976.22
2022-11-29T01:46:22.277Z,100988.53
2022-11-29T01:47:23.855Z,100988.53
2022-11-29T01:48:30.746Z,100991.16
2022-11-29T01:49:35.795Z,100985.97
2022-11-29T01:50:38.935Z,100981.66
2022-11-29T01:51:44.993Z,100987.91
2022-11-29T01:52:48.640Z,100992.34
2022-11-29T01:53:50.257Z,100990.66
2022-11-29T01:54:57.642Z,100989.81
2022-11-29T01:56:03.976Z,100986.38
2022-11-29T01:57:08.346Z,100986.38
2022-11-29T01:58:09.939Z,100995.31
2022-11-29T01:59:16.625Z,100992.66
2022-11-29T02:00:19.662Z,100991.69
2022-11-29T02:01:22.259Z,100989.03
2022-11-29T02:02:35.404Z,100990.00
2022-11-29T02:03:38.128Z,100994.31
2022-11-29T02:04:43.253Z,100991.69
2022-11-29T02:05:49.806Z,100994.31
2022-11-29T02:06:51.347Z,100999.63
2022-11-29T02:07:57.473Z,100996.97
2022-11-29T02:08:59.127Z,100996.03
2022-11-29T02:10:02.901Z,100998.69
2022-11-29T02:11:31.249Z,100989.88
2022-11-29T02:12:44.425Z,100996.13
2022-11-29T02:13:57.631Z,100995.31
2022-11-29T02:15:15.800Z,100998.03
2022-11-29T02:16:24.525Z,100999.63
2022-11-29T02:17:33.914Z,100995.31
2022-11-29T02:18:51.745Z,100995.31
2022-11-29T02:20:35.886Z,100995.31
2022-11-29T02:21:47.056Z,101003.13
2022-11-29T02:22:56.508Z,100997.09
2022-11-29T02:24:24.222Z,101005.91
2022-11-29T02:25:44.914Z,101002.28
2022-11-29T02:27:26.274Z,101004.91
2022-11-29T02:28:49.788Z,101005.78
2022-11-29T02:30:14.001Z,101008.34
2022-11-29T02:31:45.855Z,101004.81
2022-11-29T02:33:13.740Z,101000.47
2022-11-29T02:34:50.854Z,100998.69
2022-11-29T02:36:11.256Z,101006.63
2022-11-29T02:37:42.449Z,101003.13
2022-11-29T02:39:15.244Z,101007.56
2022-11-29T02:40:38.347Z,101009.28
2022-11-29T02:41:55.339Z,101016.38
2022-11-29T02:43:19.288Z,101012.88
2022-11-29T02:44:45.964Z,101007.47
2022-11-29T02:46:03.213Z,101015.41
2022-11-29T02:47:17.494Z,101016.38
2022-11-29T02:48:35.266Z,101009.28
2022-11-29T02:49:57.999Z,101015.41
2022-11-29T02:51:06.943Z,101022.44
2022-11-29T02:52:18.214Z,101017.97
2022-11-29T02:53:27.928Z,101017.97
2022-11-29T02:54:37.494Z,101018.81
2022-11-29T02:55:47.288Z,101019.66
2022-11-29T02:59:52.448Z,101024.13
2022-11-29T03:01:02.833Z,101024.97
2022-11-29T03:02:15.239Z,101023.28
2022-11-29T03:03:23.868Z,101016.31
2022-11-29T03:04:32.601Z,101016.31
2022-11-29T03:05:41.771Z,101021.47
2022-11-29T03:06:52.281Z,101024.03
2022-11-29T03:08:00.664Z,101022.22
2022-11-29T03:09:12.527Z,101024.03
2022-11-29T03:10:28.511Z,101028.34
2022-11-29T03:11:38.975Z,101028.34
2022-11-29T03:12:43.638Z,101029.19
2022-11-29T03:13:56.792Z,101030.03
2022-11-29T03:15:11.935Z,101034.41
2022-11-29T03:16:24.374Z,101029.09
2022-11-29T03:17:35.390Z,101041.50
2022-11-29T03:18:50.771Z,101033.63
2022-11-29T03:20:05.920Z,101038.00
2022-11-29T03:21:23.754Z,101040.63
2022-11-29T03:22:38.145Z,101043.19
2022-11-29T03:23:47.391Z,101041.41
2022-11-29T03:24:56.876Z,101049.34
2022-11-29T03:26:07.343Z,101046.56
2022-11-29T03:27:13.255Z,101049.13
2022-11-29T03:28:20.167Z,101050.78
2022-11-29T03:29:28.006Z,101056.09
2022-11-29T03:30:32.341Z,101051.56
2022-11-29T03:31:38.076Z,101047.91
2022-11-29T03:32:47.349Z,101048.78
2022-11-29T03:34:14.371Z,101057.56
2022-11-29T03:35:22.311Z,101053.22
2022-11-29T03:36:34.551Z,101061.16
2022-11-29T03:37:45.934Z,101060.34
2022-11-29T03:38:48.792Z,101054.41
2022-11-29T03:39:52.997Z,101057.78
2022-11-29T03:41:04.094Z,101051.63
2022-11-29T03:42:11.231Z,101056.09
2022-11-29T03:43:20.163Z,101059.72
2022-11-29T03:44:27.671Z,101064.16
2022-11-29T03:45:35.883Z,101065.00
2022-11-29T03:46:44.179Z,101062.38
2022-11-29T03:47:56.787Z,101059.72
2022-11-29T03:49:03.078Z,101065.00
2022-11-29T03:50:11.802Z,101065.00
2022-11-29T03:51:17.938Z,101062.38
2022-11-29T03:52:32.729Z,101065.00
2022-11-29T03:53:41.850Z,101067.66
2022-11-29T03:54:54.441Z,101064.16
2022-11-29T03:56:00.338Z,101068.59
2022-11-29T03:57:03.393Z,101063.31
2022-11-29T03:58:21.071Z,101073.06
2022-11-29T03:59:45.557Z,101073.91
2022-11-29T04:01:07.505Z,101063.41
2022-11-29T04:02:26.994Z,101073.28
2022-11-29T04:03:46.259Z,101067.88
2022-11-29T04:05:37.978Z,101068.81
2022-11-29T04:06:49.641Z,101072.41
2022-11-29T04:08:04.851Z,101077.72
2022-11-29T04:09:32.509Z,101076.88
2022-11-29T04:11:01.067Z,101070.00
2022-11-29T04:12:30.050Z,101076.13
2022-11-29T04:14:05.646Z,101078.78
2022-11-29T04:15:33.600Z,101077.00
2022-11-29T04:17:00.116Z,101085.88
2022-11-29T04:18:33.828Z,101088.53
2022-11-29T04:20:11.650Z,101088.53
2022-11-29T04:21:31.364Z,101088.53
2022-11-29T04:22:57.580Z,101081.53
2022-11-29T04:24:22.066Z,101090.44
2022-11-29T04:25:41.164Z,101089.47
2022-11-29T04:27:16.420Z,101093.81
2022-11-29T04:28:57.200Z,101093.81
2022-11-29T04:30:06.619Z,101091.19
2022-11-29T04:31:18.246Z,101093.81
2022-11-29T04:32:41.795Z,101097.41
2022-11-29T04:34:09.877Z,101088.66
2022-11-29T04:35:29.691Z,101093.94
2022-11-29T04:36:49.720Z,101092.13
2022-11-29T04:38:14.450Z,101087.69
2022-11-29T04:39:57.478Z,101086.81
2022-11-29T04:41:19.785Z,101084.19
2022-11-29T04:42:41.357Z,101087.81
2022-11-29T04:44:02.564Z,101094.88
2022-11-29T04:45:26.157Z,101095.75
2022-11-29T04:46:53.083Z,101091.38
2022-11-29T04:48:09.190Z,101103.69
2022-11-29T04:49:26.723Z,101106.34
2022-11-29T04:50:46.468Z,101110.66
2022-11-29T04:52:02.455Z,101107.19
2022-11-29T04:53:25.297Z,101111.63
2022-11-29T04:54:34.512Z,101115.97
2022-11-29T04:55:46.620Z,101121.25
2022-11-29T04:56:53.623Z,101113.31
2022-11-29T04:58:00.193Z,101123.91
2022-11-29T04:59:08.639Z,101124.75
2022-11-29T05:00:12.461Z,101124.75
2022-11-29T05:01:24.093Z,101121.25
2022-11-29T05:02:34.987Z,101122.00
2022-11-29T05:03:41.794Z,101125.50
2022-11-29T05:04:52.939Z,101126.47
2022-11-29T05:06:02.695Z,101128.97
2022-11-29T05:07:12.591Z,101132.59
2022-11-29T05:08:27.478Z,101132.59
2022-11-29T05:09:44.355Z,101128.97
2022-11-29T05:10:56.287Z,101136.09
2022-11-29T05:12:09.500Z,101136.19
2022-11-29T05:13:18.897Z,101139.78
2022-11-29T05:14:32.973Z,101139.97
2022-11-29T05:15:49.737Z,101139.13
2022-11-29T05:17:01.847Z,101143.59
2022-11-29T05:18:15.048Z,101145.50
2022-11-29T05:19:34.249Z,101140.19
2022-11-29T05:20:46.095Z,101135.75
2022-11-29T05:21:59.760Z,101141.03
2022-11-29T05:23:18.826Z,101141.91
2022-11-29T05:24:35.734Z,101148.03
2022-11-29T05:25:45.773Z,101147.19
2022-11-29T05:26:57.555Z,101150.69
2022-11-29T05:28:10.371Z,101156.00
2022-11-29T05:29:21.279Z,101152.47
2022-11-29T05:30:24.739Z,101163.09
2022-11-29T05:31:41.796Z,101154.41
2022-11-29T05:32:57.534Z,101160.53
2022-11-29T05:34:17.456Z,101153.56
2022-11-29T05:35:47.408Z,101161.59
2022-11-29T05:37:00.154Z,101160.84
2022-11-29T05:38:12.507Z,101169.00
2022-11-29T05:39:37.650Z,101162.22
2022-11-29T05:40:46.324Z,101166.03
2022-11-29T05:42:11.765Z,101162.66
2022-11-29T05:43:37.727Z,101160.09
2022-11-29T05:44:46.588Z,101169.81
2022-11-29T05:45:55.649Z,101172.59
2022-11-29T05:47:01.801Z,101168.16
2022-11-29T05:48:09.042Z,101171.75
2022-11-29T05:49:21.921Z,101173.44
2022-11-29T05:50:29.681Z,101177.03
2022-11-29T05:51:41.434Z,101173.53
2022-11-29T05:52:51.767Z,101175.34
2022-11-29T05:54:04.119Z,101174.47
2022-11-29T05:55:20.510Z,101185.91
2022-11-29T05:56:28.996Z,101173.66
2022-11-29T05:57:42.522Z,101184.13
2022-11-29T05:58:51.238Z,101185.91
2022-11-29T05:59:54.153Z,101183.28
2022-11-29T06:01:02.685Z,101189.41
2022-11-29T06:02:22.740Z,101189.34
2022-11-29T06:03:33.700Z,101191.00
2022-11-29T06:04:55.938Z,101191.84
2022-11-29T06:06:02.659Z,101196.09
2022-11-29T06:07:14.161Z,101200.44
2022-11-29T06:08:21.062Z,101210.09
2022-11-29T06:09:29.266Z,101206.50
2022-11-29T06:10:34.603Z,101207.22
2022-11-29T06:11:43.252Z,101210.75
2022-11-29T06:13:00.239Z,101202.66
2022-11-29T06:14:09.631Z,101212.31
2022-11-29T06:15:28.685Z,101214.03
2022-11-29T06:16:51.327Z,101213.06
2022-11-29T06:18:03.170Z,101219.19
2022-11-29T06:19:33.255Z,101213.06
2022-11-29T06:21:00.019Z,101219.19
2022-11-29T06:22:20.786Z,101220.06
2022-11-29T06:23:36.536Z,101219.19
2022-11-29T06:24:52.507Z,101220.06
2022-11-29T06:26:10.303Z,101220.06
2022-11-29T06:27:35.181Z,101224.50
2022-11-29T06:28:51.297Z,101227.25
2022-11-29T06:30:03.095Z,101234.25
2022-11-29T06:31:13.064Z,101228.94
2022-11-29T06:32:25.144Z,101233.28
2022-11-29T06:33:35.505Z,101232.56
2022-11-29T06:34:46.133Z,101232.56
2022-11-29T06:35:57.663Z,101234.44
2022-11-29T06:37:04.737Z,101236.34
2022-11-29T06:38:14.754Z,101240.91
2022-11-29T06:39:16.723Z,101236.56
2022-11-29T06:40:19.358Z,101237.63
2022-11-29T06:41:23.680Z,101239.41
2022-11-29T06:42:26.163Z,101235.06
2022-11-29T06:43:28.338Z,101240.47
2022-11-29T06:44:32.999Z,101242.28
2022-11-29T06:45:34.987Z,101236.00
2022-11-29T06:46:46.313Z,101238.66
2022-11-29T06:47:55.046Z,101238.66
2022-11-29T06:49:06.949Z,101237.84
2022-11-29T06:50:27.756Z,101242.28
2022-11-29T06:51:34.441Z,101243.22
2022-11-29T06:52:44.727Z,101241.50
2022-11-29T06:53:52.413Z,101244.16
2022-11-29T06:55:07.559Z,101238.88
2022-11-29T06:56:22.212Z,101240.78
2022-11-29T06:57:32.113Z,101245.22
2022-11-29T06:58:46.450Z,101240.88
2022-11-29T07:00:03.492Z,101247.13
2022-11-29T07:01:14.273Z,101239.28
2022-11-29T07:02:40.832Z,101248.16
2022-11-29T07:03:59.863Z,101248.16
2022-11-29T07:05:12.300Z,101250.06
2022-11-29T07:06:21.169Z,101242.88
2022-11-29T07:07:24.898Z,101252.63
2022-11-29T07:08:27.970Z,101255.16
2022-11-29T07:09:34.103Z,101255.16
2022-11-29T07:10:39.365Z,101255.16
2022-11-29T07:11:42.358Z,101248.16
2022-11-29T07:12:46.297Z,101256.00
2022-11-29T07:13:48.374Z,101260.44
2022-11-29T07:14:52.844Z,101267.44
2022-11-29T07:16:04.160Z,101252.44
2022-11-29T07:17:16.002Z,101260.25
2022-11-29T07:18:29.159Z,101263.88
2022-11-29T07:19:42.868Z,101262.16
2022-11-29T07:20:57.559Z,101257.81
2022-11-29T07:22:06.290Z,101267.44
2022-11-29T07:23:19.027Z,101260.44
2022-11-29T07:24:33.993Z,101274.53
2022-11-29T07:25:44.242Z,101271.97
2022-11-29T07:26:59.330Z,101264.03
2022-11-29T07:28:10.894Z,101271.16
2022-11-29T07:29:27.869Z,101275.59
2022-11-29T07:30:38.770Z,101273.88
2022-11-29T07:31:55.464Z,101274.84
2022-11-29T07:33:09.042Z,101275.88
2022-11-29T07:34:19.423Z,101285.63
2022-11-29T07:35:30.280Z,101283.19
2022-11-29T07:36:40.943Z,101282.44
2022-11-29T07:37:57.726Z,101286.78
2022-11-29T07:39:16.278Z,101284.16
2022-11-29T07:40:25.103Z,101288.47
2022-11-29T07:41:35.414Z,101285.81
2022-11-29T07:42:46.207Z,101286.59
2022-11-29T07:43:55.374Z,101291.88
2022-11-29T07:45:07.266Z,101296.22
2022-11-29T07:46:11.177Z,101289.03
2022-11-29T07:47:13.411Z,101290.72
2022-11-29T07:48:18.142Z,101295.91
2022-11-29T07:49:20.611Z,101302.06
2022-11-29T07:50:22.335Z,101301.09
2022-11-29T07:51:24.909Z,101303.66
2022-11-29T07:52:26.660Z,101299.22
2022-11-29T07:53:30.244Z,101306.22
2022-11-29T07:54:31.818Z,101306.22
2022-11-29T07:55:36.018Z,101306.22
2022-11-29T07:56:37.514Z,101305.38
2022-11-29T07:57:39.951Z,101309.81
2022-11-29T07:58:42.682Z,101306.22
2022-11-29T07:59:44.470Z,101305.38
2022-11-29T08:00:47.311Z,101308.94
2022-11-29T08:01:50.323Z,101303.56
2022-11-29T08:02:53.122Z,101315.84
2022-11-29T08:03:54.631Z,101319.34
2022-11-29T08:04:57.308Z,101318.28
2022-11-29T08:05:59.957Z,101309.59
2022-11-29T08:07:02.496Z,101320.19
2022-11-29T08:08:04.272Z,101317.63
2022-11-29T08:09:07.536Z,101321.25
2022-11-29T08:10:12.018Z,101316.81
2022-11-29T08:11:15.833Z,101308.75
2022-11-29T08:12:18.396Z,101312.25
2022-11-29T08:13:21.544Z,101306.75
2022-11-29T08:14:24.482Z,101318.06
2022-11-29T08:15:26.032Z,101313.63
2022-11-29T08:16:28.672Z,101310.91
2022-11-29T08:17:31.539Z,101323.16
2022-11-29T08:18:34.256Z,101316.94
2022-11-29T08:19:35.971Z,101323.94
2022-11-29T08:20:39.135Z,101313.34
2022-11-29T08:21:46.729Z,101311.56
2022-11-29T08:22:54.213Z,101323.00
2022-11-29T08:23:56.813Z,101328.28
2022-11-29T08:24:59.787Z,101322.16
2022-11-29T08:26:02.991Z,101321.28
2022-11-29T08:27:05.475Z,101323.00
2022-11-29T08:28:07.199Z,101328.28
2022-11-29T08:29:09.775Z,101329.97
2022-11-29T08:30:11.677Z,101336.13
2022-11-29T08:31:14.704Z,101331.69
2022-11-29T08:32:16.594Z,101327.22
2022-11-29T08:33:20.608Z,101321.09
2022-11-29T08:34:23.069Z,101333.38
2022-11-29T08:35:25.659Z,101330.63
2022-11-29T08:36:27.319Z,101326.19
2022-11-29T08:37:29.811Z,101330.53
2022-11-29T08:38:32.320Z,101334.03
2022-11-29T08:39:34.832Z,101333.19
2022-11-29T08:40:36.369Z,101330.53
2022-11-29T08:41:39.134Z,101335.72
2022-11-29T08:42:41.694Z,101334.84
2022-11-29T08:43:44.925Z,101335.63
2022-11-29T08:44:48.024Z,101341.00
2022-11-29T08:45:52.054Z,101340.91
2022-11-29T08:47:12.074Z,101338.28
2022-11-29T08:48:15.065Z,101339.13
2022-11-29T08:49:18.790Z,101343.56
2022-11-29T08:50:21.423Z,101344.41
2022-11-29T08:51:22.948Z,101346.94
2022-11-29T08:52:43.377Z,101346.09
2022-11-29T08:53:51.613Z,101345.16
2022-11-29T08:54:53.262Z,101350.38
2022-11-29T08:56:00.160Z,101352.03
2022-11-29T08:57:38.152Z,101348.44
2022-11-29T08:58:25.619Z,101347.50
2022-11-29T08:59:28.089Z,101348.44
2022-11-29T09:00:30.881Z,101353.63
2022-11-29T09:01:33.684Z,101359.78
2022-11-29T09:02:35.945Z,101357.13
2022-11-29T09:03:56.255Z,101361.50
2022-11-29T09:05:00.096Z,101356.97
2022-11-29T09:06:12.012Z,101360.47
2022-11-29T09:07:16.012Z,101363.03
2022-11-29T09:08:19.095Z,101364.81
2022-11-29T09:09:21.874Z,101369.19
2022-11-29T09:10:24.392Z,101363.88
2022-11-29T09:11:28.835Z,101372.66
2022-11-29T09:12:30.806Z,101369.81
2022-11-29T09:13:33.322Z,101368.84
2022-11-29T09:14:35.977Z,101370.56
2022-11-29T09:15:37.767Z,101366.22
2022-11-29T09:16:40.599Z,101366.13
2022-11-29T09:17:43.146Z,101371.41
2022-11-29T09:18:51.293Z,101374.91
2022-11-29T09:19:54.261Z,101373.94
2022-11-29T09:20:59.232Z,101376.50
2022-11-29T09:22:01.737Z,101376.50
2022-11-29T09:23:04.238Z,101372.06
2022-11-29T09:24:06.659Z,101379.03
2022-11-29T09:25:10.185Z,101374.81
2022-11-29T09:26:17.627Z,101387.75
2022-11-29T09:27:20.122Z,101392.09
2022-11-29T09:28:22.886Z,101384.13
2022-11-29T09:29:25.428Z,101387.75
2022-11-29T09:30:29.838Z,101385.84
2022-11-29T09:31:35.443Z,101389.34
2022-11-29T09:32:37.249Z,101388.41
2022-11-29T09:33:40.509Z,101390.19
2022-11-29T09:34:43.276Z,101400.81
2022-11-29T09:35:45.325Z,101395.50
2022-11-29T09:36:49.166Z,101394.56
2022-11-29T09:37:51.799Z,101390.09
2022-11-29T09:38:53.312Z,101396.22
2022-11-29T09:39:55.773Z,101396.16
2022-11-29T09:41:05.098Z,101403.13
2022-11-29T09:42:19.976Z,101401.31
2022-11-29T09:43:29.958Z,101404.94
2022-11-29T09:44:42.079Z,101405.16
2022-11-29T09:45:48.781Z,101411.28
2022-11-29T09:47:02.463Z,101411.28
2022-11-29T09:48:29.338Z,101409.69
2022-11-29T09:49:48.168Z,101413.09
2022-11-29T09:50:54.959Z,101411.41
2022-11-29T09:52:05.621Z,101408.75
2022-11-29T09:53:27.953Z,101418.41
2022-11-29T09:54:36.814Z,101418.28
2022-11-29T09:55:55.718Z,101418.28
2022-11-29T09:56:58.344Z,101415.56
2022-11-29T09:58:03.696Z,101418.06
2022-11-29T09:59:11.769Z,101416.28
2022-11-29T10:00:16.596Z,101414.50
2022-11-29T10:01:24.231Z,101414.38
2022-11-29T10:02:37.342Z,101416.16
2022-11-29T10:03:44.448Z,101424.03
2022-11-29T10:04:51.592Z,101418.72
2022-11-29T10:05:59.480Z,101420.44
2022-11-29T10:07:07.574Z,101422.13
2022-11-29T10:08:19.428Z,101426.47
2022-11-29T10:09:29.563Z,101422.88
2022-11-29T10:10:41.501Z,101415.66
2022-11-29T10:11:56.447Z,101413.88
2022-11-29T10:13:04.822Z,101413.88
2022-11-29T10:14:15.147Z,101418.31
2022-11-29T10:15:22.457Z,101422.56
2022-11-29T10:16:29.587Z,101419.91
2022-11-29T10:17:37.869Z,101414.53
2022-11-29T10:18:46.237Z,101414.53
2022-11-29T10:19:53.733Z,101406.56
2022-11-29T10:20:58.937Z,101414.53
2022-11-29T10:22:06.946Z,101414.53
2022-11-29T10:23:17.034Z,101419.81
2022-11-29T10:24:23.803Z,101416.22
2022-11-29T10:25:30.563Z,101419.81
2022-11-29T10:26:35.501Z,101416.22
2022-11-29T10:27:41.182Z,101410.06
2022-11-29T10:28:47.372Z,101417.06
2022-11-29T10:29:51.178Z,101420.56
2022-11-29T10:30:54.649Z,101418.75
2022-11-29T10:31:59.219Z,101419.53
2022-11-29T10:33:02.544Z,101419.41
2022-11-29T10:34:13.854Z,101418.56
2022-11-29T10:35:18.998Z,101413.25
2022-11-29T10:36:28.679Z,101419.41
2022-11-29T10:37:32.669Z,101421.13
2022-11-29T10:38:34.221Z,101412.19
2022-11-29T10:39:42.040Z,101412.19
2022-11-29T10:40:49.900Z,101408.59
2022-11-29T10:41:56.547Z,101415.59
2022-11-29T10:42:58.261Z,101409.44
2022-11-29T10:44:01.882Z,101410.31
2022-11-29T10:45:08.668Z,101413.69
2022-11-29T10:46:16.094Z,101411.03
2022-11-29T10:47:17.796Z,101410.09
2022-11-29T10:48:22.878Z,101412.75
2022-11-29T10:49:29.106Z,101409.03
2022-11-29T10:50:33.758Z,101415.19
2022-11-29T10:51:36.323Z,101413.28
2022-11-29T10:52:39.382Z,101423.66
2022-11-29T10:53:41.882Z,101415.72
2022-11-29T10:54:45.848Z,101412.31
2022-11-29T10:55:54.214Z,101422.84
2022-11-29T10:56:57.212Z,101414.97
2022-11-29T10:58:15.918Z,101413.19
2022-11-29T10:59:23.366Z,101414.97
2022-11-29T11:00:27.759Z,101416.69
2022-11-29T11:01:32.318Z,101414.91
2022-11-29T11:02:34.740Z,101420.94
2022-11-29T11:03:39.930Z,101411.19
2022-11-29T11:04:46.422Z,101424.09
2022-11-29T11:06:00.106Z,101418.81
2022-11-29T11:07:05.025Z,101418.72
2022-11-29T11:08:17.421Z,101423.94
2022-11-29T11:09:22.449Z,101418.50
2022-11-29T11:10:27.554Z,101415.84
2022-11-29T11:11:32.401Z,101422.00
2022-11-29T11:12:36.827Z,101422.09
2022-11-29T11:13:40.806Z,101418.50
2022-11-29T11:14:45.565Z,101424.75
2022-11-29T11:15:47.378Z,101419.56
2022-11-29T11:16:50.175Z,101420.50
2022-11-29T11:17:57.651Z,101414.47
2022-11-29T11:19:30.456Z,101424.31
2022-11-29T11:20:35.634Z,101421.78
2022-11-29T11:21:40.263Z,101422.63
2022-11-29T11:22:41.774Z,101423.50
2022-11-29T11:23:55.631Z,101417.41
2022-11-29T11:25:00.078Z,101412.13
2022-11-29T11:26:05.344Z,101425.38
2022-11-29T11:27:08.181Z,101416.56
2022-11-29T11:28:20.308Z,101419.22
2022-11-29T11:29:26.549Z,101424.44
2022-11-29T11:30:29.309Z,101425.16
2022-11-29T11:31:35.374Z,101422.44
2022-11-29T11:32:37.963Z,101417.97
2022-11-29T11:33:41.364Z,101419.66
2022-11-29T11:34:52.506Z,101432.81
2022-11-29T11:36:12.238Z,101423.06
2022-11-29T11:37:21.535Z,101422.09
2022-11-29T11:38:24.269Z,101428.16
2022-11-29T11:39:29.039Z,101431.53
2022-11-29T11:40:32.721Z,101424.53
2022-11-29T11:42:05.286Z,101433.25
2022-11-29T11:43:19.815Z,101429.75
2022-11-29T11:44:47.788Z,101427.94
2022-11-29T11:45:54.353Z,101431.53
2022-11-29T11:46:57.404Z,101427.94
2022-11-29T11:48:02.904Z,101429.84
2022-11-29T11:49:13.490Z,101431.66
2022-11-29T11:50:25.992Z,101422.84
2022-11-29T11:51:28.671Z,101432.50
2022-11-29T11:52:40.686Z,101428.91
2022-11-29T11:53:52.455Z,101438.56
2022-11-29T11:55:01.016Z,101424.34
2022-11-29T11:56:07.225Z,101436.63
2022-11-29T11:57:17.042Z,101428.69
2022-11-29T11:58:23.495Z,101433.03
2022-11-29T11:59:28.037Z,101434.75
2022-11-29T12:02:26.211Z,101436.63
2022-11-29T12:03:43.165Z,101431.34
2022-11-29T12:04:46.178Z,101435.69
2022-11-29T12:05:49.797Z,101439.94
2022-11-29T12:06:55.727Z,101431.88
2022-11-29T12:08:09.021Z,101435.41
2022-11-29T12:09:27.389Z,101429.13
2022-11-29T12:10:34.688Z,101434.31
2022-11-29T12:11:43.786Z,101432.41
2022-11-29T12:12:48.512Z,101430.53
2022-11-29T12:13:54.999Z,101436.56
2022-11-29T12:15:00.851Z,101433.91
2022-11-29T12:16:09.751Z,101441.88
2022-11-29T12:17:20.350Z,101435.81
2022-11-29T12:18:30.504Z,101436.78
2022-11-29T12:19:41.119Z,101438.56
2022-11-29T12:20:51.631Z,101439.44
2022-11-29T12:22:00.733Z,101439.44
2022-11-29T12:23:24.761Z,101442.06
2022-11-29T12:24:31.798Z,101441.13
2022-11-29T12:25:43.606Z,101441.13
2022-11-29T12:26:56.981Z,101446.22
2022-11-29T12:28:00.735Z,101442.59
2022-11-29T12:29:03.540Z,101446.22
2022-11-29T12:30:13.188Z,101447.91
2022-11-29T12:31:34.313Z,101453.19
2022-11-29T12:32:55.365Z,101456.84
2022-11-29T12:34:09.053Z,101455.13
2022-11-29T12:35:36.892Z,101459.69
2022-11-29T12:36:47.924Z,101458.84
2022-11-29T12:37:53.324Z,101456.19
2022-11-29T12:39:09.439Z,101463.28
2022-11-29T12:40:20.282Z,101464.88
2022-11-29T12:41:38.080Z,101465.63
2022-11-29T12:42:46.299Z,101468.25
2022-11-29T12:43:59.866Z,101466.47
2022-11-29T12:45:16.388Z,101469.88
2022-11-29T12:46:24.295Z,101472.41
2022-11-29T12:47:45.188Z,101474.13
2022-11-29T12:48:59.917Z,101478.38
2022-11-29T12:50:11.725Z,101468.69
2022-11-29T12:51:23.405Z,101475.72
2022-11-29T12:52:33.074Z,101474.00
2022-11-29T12:53:51.833Z,101482.94
2022-11-29T12:55:05.105Z,101482.94
2022-11-29T12:56:16.113Z,101485.69
2022-11-29T12:57:29.237Z,101475.91
2022-11-29T12:58:44.233Z,101478.69
2022-11-29T13:00:09.210Z,101477.84
2022-11-29T13:01:20.190Z,101478.69
2022-11-29T13:02:31.961Z,101483.16
2022-11-29T13:03:44.667Z,101477.84
2022-11-29T13:04:59.734Z,101481.22
2022-11-29T13:06:17.508Z,101480.38
2022-11-29T13:07:29.208Z,101481.22
2022-11-29T13:08:48.829Z,101478.56
2022-11-29T13:10:17.810Z,101484.00
2022-11-29T13:11:25.984Z,101482.28
2022-11-29T13:12:36.183Z,101478.78
2022-11-29T13:13:41.671Z,101481.53
2022-11-29T13:14:51.848Z,101485.88
2022-11-29T13:16:04.413Z,101485.03
2022-11-29T13:17:22.949Z,101478.06
2022-11-29T13:18:33.308Z,101488.66